Friday, November 17, 2017, 9:07 PM GMT
Back to Local

CWST, La Pocatiere

Location: , , Canada Lat: 47.35
Local Time: 9:07 PM GMT (21:07 GMT) Lon: -70.033
Time Zone: GMT Elev: 101 ft

Show me the last for .
Show Coded

Time T Td Feel RH Dir Speed Gust Alt SLP Vis Weather Sky Remarks
2017-11-17 20:00 30 17 18 58 330° 10 20 - 29.80 0 Peak wind: 19 mph (17 kts) from 310° at 30 min
2017-11-17 19:00 31 19 19 59 300° 13 20 - 29.77 0 Peak wind: 21 mph (19 kts) from 330° at 23 min
2017-11-17 18:00 31 19 18 60 320° 14 22 - 29.76 0 Peak wind: 23 mph (20 kts) from 330° at 10 min
2017-11-17 17:00 31 20 18 61 340° 15 22 - 29.76 0 Peak wind: 21 mph (19 kts) from 330° at 59 min
2017-11-17 16:00 32 21 18 65 320° 10 24 - 29.76 0 Peak wind: 24 mph (21 kts) from 340° at 53 min
2017-11-17 15:00 32 23 24 68 330° 9 - - 29.76 0 None
2017-11-17 14:00 32 25 25 75 330° 8 - - 29.75 0 None
2017-11-17 13:00 33 26 22 75 340° 13 21 - 29.73 0 Peak wind: 23 mph (20 kts) from 340° at 26 min
2017-11-17 12:00 36 28 25 73 330° 12 18 - 29.70 0 Peak wind: 25 mph (22 kts) from 330° at 27 min
2017-11-17 11:00 36 33 32 87 320° 5 - - 29.67 0 None
2017-11-17 10:00 35 34 32 95 360° 3 - - 29.65 0 None
2017-11-17 09:00 35 34 31 97 30° 5 - - 29.63 0 None
2017-11-17 08:00 35 34 32 95 10° 3 - - 29.62 0 None
2017-11-17 07:00 34 33 - 95 20° 2 - - 29.62 0 None
2017-11-17 06:00 35 33 32 94 10° 3 - - 29.63 0 None
2017-11-17 05:00 35 33 32 91 20° 3 - - 29.63 0 None
2017-11-17 04:00 37 34 32 89 160° 6 - - 29.64 0 None
2017-11-17 03:00 37 34 32 88 140° 6 - - 29.64 0 None
2017-11-17 02:00 37 34 33 89 130° 5 - - 29.67 0 None
2017-11-17 01:00 37 34 34 87 150° 5 - - 29.70 0 None
2017-11-17 00:00 37 34 32 86 160° 7 - - 29.71 0 None
2017-11-16 23:00 37 34 34 87 160° 3 - - 29.71 0 None
2017-11-16 22:00 35 33 31 92 150° 5 - - 29.71 0 None

Support USWX by starting your Amazon purchase here.